Time;durP1;ratioP1;P1;durP2;ratioP2;P2;SDS_P1;SDS_P2;PMS_P1;PMS_P2;Temp;Humidity;BMP_temperature;BMP_pressure;BME280_temperature;BME280_humidity;BME280_pressure;Samples;Min_cycle;Max_cycle;Signal;HPM_P1;HPM_P2
2022/04/17 00:00:40;;;;;;;;;;;;;;;;;;2057642;28;19914;-79
2022/04/17 00:01:42;;;;;;;;;;;;;;;;;;2066109;28;20004;-78
2022/04/17 00:02:43;;;;;;;;;;;;;;;;;;2066264;28;19913;-79
2022/04/17 00:03:43;;;;;;;;;;;;;;;;;;2066038;28;19921;-79
2022/04/17 00:04:43;;;;;;;;;;;;;;;;;;2066311;28;19917;-79
2022/04/17 00:05:46;;;;;;;;;;;;;;;;;;2066043;28;19913;-79
2022/04/17 00:06:46;;;;;;;;;;;;;;;;;;2057501;28;20009;-79
2022/04/17 00:07:46;;;;;;;;;;;;;;;;;;2057698;28;19969;-79
2022/04/17 00:08:47;;;;;;;;;;;;;;;;;;2066036;28;20351;-79
2022/04/17 00:09:47;;;;;;;;;;;;;;;;;;2066030;28;19957;-79
2022/04/17 00:10:47;;;;;;;;;;;;;;;;;;2066241;28;19913;-79
2022/04/17 00:11:48;;;;;;;;;;;;;;;;;;2057461;28;19914;-79
2022/04/17 00:12:48;;;;;;;;;;;;;;;;;;2057585;28;20284;-79
2022/04/17 00:13:48;;;;;;;;;;;;;;;;;;2065486;28;20291;-79
2022/04/17 00:14:49;;;;;;;;;;;;;;;;;;2066077;28;20353;-79
2022/04/17 00:15:51;;;;;;;;;;;;;;;;;;2057425;28;19919;-79
2022/04/17 00:16:51;;;;;;;;;;;;;;;;;;2057593;28;19914;-79
2022/04/17 00:17:51;;;;;;;;;;;;;;;;;;2065970;28;19918;-79
2022/04/17 00:18:52;;;;;;;;;;;;;;;;;;2065960;28;19980;-79
2022/04/17 00:19:52;;;;;;;;;;;;;;;;;;2065994;28;19924;-79
2022/04/17 00:20:52;;;;;;;;;;;;;;;;;;2057328;28;19922;-79
2022/04/17 00:21:53;;;;;;;;;;;;;;;;;;2057587;28;19957;-80
2022/04/17 00:22:53;;;;;;;;;;;;;;;;;;2065885;28;19914;-79
2022/04/17 00:23:53;;;;;;;;;;;;;;;;;;2065933;28;19932;-79
2022/04/17 00:24:53;;;;;;;;;;;;;;;;;;2065871;28;20350;-79
2022/04/17 00:25:54;;;;;;;;;;;;;;;;;;2066052;28;20252;-80
2022/04/17 00:26:59;;;;;;;;;;;;;;;;;;2066046;28;19914;-80
2022/04/17 00:27:59;;;;;;;;;;;;;;;;;;2068732;28;19943;-80
2022/04/17 00:29:00;;;;;;;;;;;;;;;;;;2065829;28;20449;-81
2022/04/17 00:30:00;;;;;;;;;;;;;;;;;;2065855;28;20025;-80
2022/04/17 00:31:00;;;;;;;;;;;;;;;;;;2065838;28;19925;-80
2022/04/17 00:32:01;;;;;;;;;;;;;;;;;;2065989;28;19989;-80
2022/04/17 00:33:01;;;;;;;;;;;;;;;;;;2057380;28;20004;-79
2022/04/17 00:34:02;;;;;;;;;;;;;;;;;;2057418;28;20012;-80
2022/04/17 00:35:02;;;;;;;;;;;;;;;;;;2065388;28;20038;-78
2022/04/17 00:36:02;;;;;;;;;;;;;;;;;;2065482;28;20421;-80
2022/04/17 00:37:03;;;;;;;;;;;;;;;;;;2065707;28;20366;-80
2022/04/17 00:38:04;;;;;;;;;;;;;;;;;;2065891;28;20516;-80
2022/04/17 00:39:04;;;;;;;;;;;;;;;;;;2065760;28;19918;-79
2022/04/17 00:40:05;;;;;;;;;;;;;;;;;;2065842;28;19918;-80
2022/04/17 00:41:06;;;;;;;;;;;;;;;;;;2065762;28;19925;-80
2022/04/17 00:42:07;;;;;;;;;;;;;;;;;;2065814;28;19914;-80
2022/04/17 00:43:22;;;;;;;;;;;;;;;;;;2065744;28;20152;-80
2022/04/17 00:44:22;;;;;;;;;;;;;;;;;;2065702;28;20375;-80
2022/04/17 00:45:23;;;;;;;;;;;;;;;;;;2065888;28;19953;-80
2022/04/17 00:46:23;;;;;;;;;;;;;;;;;;2065753;28;19953;-80
2022/04/17 00:47:23;;;;;;;;;;;;;;;;;;2057233;28;19949;-80
2022/04/17 00:48:26;;;;;;;;;;;;;;;;;;2057210;28;19973;-80
2022/04/17 00:49:26;;;;;;;;;;;;;;;;;;2069808;28;20330;-80
2022/04/17 00:50:27;;;;;;;;;;;;;;;;;;2073922;28;20007;-80
2022/04/17 00:51:27;;;;;;;;;;;;;;;;;;2073828;28;19914;-80
2022/04/17 00:52:28;;;;;;;;;;;;;;;;;;2073830;28;19957;-79
2022/04/17 00:53:28;;;;;;;;;;;;;;;;;;2073753;28;19953;-79
2022/04/17 00:54:29;;;;;;;;;;;;;;;;;;2073753;28;20359;-78
2022/04/17 00:55:30;;;;;;;;;;;;;;;;;;2073860;28;20378;-79
2022/04/17 00:56:30;;;;;;;;;;;;;;;;;;2073777;28;20304;-80
2022/04/17 00:57:31;;;;;;;;;;;;;;;;;;2073811;28;20291;-79
2022/04/17 00:58:32;;;;;;;;;;;;;;;;;;2074024;28;19948;-78
2022/04/17 00:59:32;;;;;;;;;;;;;;;;;;2065164;28;19922;-78
2022/04/17 01:00:33;;;;;;;;;;;;;;;;;;2065215;28;20359;-79
2022/04/17 01:01:33;;;;;;;;;;;;;;;;;;2073943;28;20008;-79
2022/04/17 01:02:33;;;;;;;;;;;;;;;;;;2073800;28;20063;-80
2022/04/17 01:03:34;;;;;;;;;;;;;;;;;;2065089;28;19924;-80
2022/04/17 01:04:34;;;;;;;;;;;;;;;;;;2065194;28;20370;-78
2022/04/17 01:05:37;;;;;;;;;;;;;;;;;;2073754;28;19914;-80
2022/04/17 01:06:40;;;;;;;;;;;;;;;;;;2073959;28;19913;-79
2022/04/17 01:07:41;;;;;;;;;;;;;;;;;;2073724;28;20362;-79
2022/04/17 01:08:41;;;;;;;;;;;;;;;;;;2073812;28;19917;-79
2022/04/17 01:09:43;;;;;;;;;;;;;;;;;;2073650;28;20020;-79
2022/04/17 01:10:44;;;;;;;;;;;;;;;;;;2064988;28;19924;-78
2022/04/17 01:11:44;;;;;;;;;;;;;;;;;;2065134;28;19914;-79
2022/04/17 01:12:45;;;;;;;;;;;;;;;;;;2073687;28;19920;-78
2022/04/17 01:13:45;;;;;;;;;;;;;;;;;;2073585;28;20294;-78
2022/04/17 01:14:48;;;;;;;;;;;;;;;;;;2073615;28;19913;-79
2022/04/17 01:15:49;;;;;;;;;;;;;;;;;;2073585;28;19972;-78
2022/04/17 01:16:49;;;;;;;;;;;;;;;;;;2065126;28;19922;-79
2022/04/17 01:17:50;;;;;;;;;;;;;;;;;;2065083;28;19914;-78
2022/04/17 01:18:57;;;;;;;;;;;;;;;;;;2065145;28;19961;-79
2022/04/17 01:19:57;;;;;;;;;;;;;;;;;;2064964;28;19925;-78
2022/04/17 01:20:58;;;;;;;;;;;;;;;;;;2064917;28;20391;-79
2022/04/17 01:21:58;;;;;;;;;;;;;;;;;;2073142;28;19914;-78
2022/04/17 01:26:56;;;;;;;;;;;;;;;;;;2073678;28;20366;-79
2022/04/17 01:27:56;;;;;;;;;;;;;;;;;;2073656;28;19913;-80
2022/04/17 01:28:57;;;;;;;;;;;;;;;;;;2073584;28;20015;-80
2022/04/17 01:29:57;;;;;;;;;;;;;;;;;;2064936;28;19914;-80
2022/04/17 01:30:57;;;;;;;;;;;;;;;;;;2065003;28;19924;-79
2022/04/17 01:32:15;;;;;;;;;;;;;;;;;;2064837;28;19913;-80
2022/04/17 01:33:16;;;;;;;;;;;;;;;;;;2067472;28;19984;-80
2022/04/17 01:34:16;;;;;;;;;;;;;;;;;;2073520;28;20016;-80
2022/04/17 01:35:17;;;;;;;;;;;;;;;;;;2064835;28;20368;-80
2022/04/17 01:36:17;;;;;;;;;;;;;;;;;;2064887;28;19914;-80
2022/04/17 01:37:18;;;;;;;;;;;;;;;;;;2072965;28;19914;-80
2022/04/17 01:38:18;;;;;;;;;;;;;;;;;;2073180;28;19980;-80
2022/04/17 01:39:19;;;;;;;;;;;;;;;;;;2073213;28;20413;-79
2022/04/17 01:40:19;;;;;;;;;;;;;;;;;;2073765;28;20012;-79
2022/04/17 01:41:19;;;;;;;;;;;;;;;;;;2064820;28;20321;-79
2022/04/17 01:42:20;;;;;;;;;;;;;;;;;;2064921;28;20004;-79
2022/04/17 01:43:20;;;;;;;;;;;;;;;;;;2072881;28;19960;-79
2022/04/17 01:44:20;;;;;;;;;;;;;;;;;;2072973;28;20109;-79
2022/04/17 01:45:20;;;;;;;;;;;;;;;;;;2073409;28;20389;-79
2022/04/17 01:46:22;;;;;;;;;;;;;;;;;;2064763;28;19925;-80
2022/04/17 01:47:23;;;;;;;;;;;;;;;;;;2065244;28;19918;-79
2022/04/17 01:48:23;;;;;;;;;;;;;;;;;;2064799;28;19981;-79
2022/04/17 01:49:23;;;;;;;;;;;;;;;;;;2056748;28;19930;-79
2022/04/17 01:50:25;;;;;;;;;;;;;;;;;;2064934;28;19914;-79
2022/04/17 01:51:26;;;;;;;;;;;;;;;;;;2064965;28;19937;-79
2022/04/17 01:52:27;;;;;;;;;;;;;;;;;;2064978;28;19961;-79
2022/04/17 01:53:27;;;;;;;;;;;;;;;;;;2073460;28;20048;-79
2022/04/17 01:54:28;;;;;;;;;;;;;;;;;;2073511;28;20313;-79
2022/04/17 01:55:29;;;;;;;;;;;;;;;;;;2073460;28;20346;-79
2022/04/17 01:56:29;;;;;;;;;;;;;;;;;;2064738;28;20393;-80
2022/04/17 01:57:30;;;;;;;;;;;;;;;;;;2064941;28;19918;-79
2022/04/17 01:58:30;;;;;;;;;;;;;;;;;;2064688;28;20355;-79
2022/04/17 01:59:30;;;;;;;;;;;;;;;;;;2072987;28;19914;-80
2022/04/17 02:00:30;;;;;;;;;;;;;;;;;;2064717;28;20535;-79
2022/04/17 02:01:32;;;;;;;;;;;;;;;;;;2065186;28;19913;-79
2022/04/17 02:02:33;;;;;;;;;;;;;;;;;;2064781;28;19963;-79
2022/04/17 02:03:34;;;;;;;;;;;;;;;;;;2064727;28;19918;-79
2022/04/17 02:04:36;;;;;;;;;;;;;;;;;;2064927;28;20351;-79
2022/04/17 02:05:36;;;;;;;;;;;;;;;;;;2073061;28;19913;-79
2022/04/17 02:06:39;;;;;;;;;;;;;;;;;;2064825;28;20395;-79
2022/04/17 02:07:39;;;;;;;;;;;;;;;;;;2065312;28;19913;-79
2022/04/17 02:08:40;;;;;;;;;;;;;;;;;;2073471;28;19956;-80
2022/04/17 02:09:40;;;;;;;;;;;;;;;;;;2073396;28;19921;-79
2022/04/17 02:10:41;;;;;;;;;;;;;;;;;;2073619;28;19914;-79
2022/04/17 02:11:42;;;;;;;;;;;;;;;;;;2073333;28;20386;-79
2022/04/17 02:12:45;;;;;;;;;;;;;;;;;;2064728;28;19918;-79
2022/04/17 02:13:46;;;;;;;;;;;;;;;;;;2065154;28;19961;-80
2022/04/17 02:14:47;;;;;;;;;;;;;;;;;;2073464;28;19913;-79
2022/04/17 02:15:51;;;;;;;;;;;;;;;;;;2064829;28;19920;-79
2022/04/17 02:16:51;;;;;;;;;;;;;;;;;;2065309;28;19913;-79
2022/04/17 02:17:51;;;;;;;;;;;;;;;;;;2064591;28;20015;-79
2022/04/17 02:18:52;;;;;;;;;;;;;;;;;;2057172;28;19950;-81
2022/04/17 02:19:52;;;;;;;;;;;;;;;;;;2064886;28;20379;-79
2022/04/17 02:20:53;;;;;;;;;;;;;;;;;;2064701;28;19914;-79
2022/04/17 02:21:53;;;;;;;;;;;;;;;;;;2064792;28;19977;-79
2022/04/17 02:22:53;;;;;;;;;;;;;;;;;;2073380;28;19924;-79
2022/04/17 02:23:54;;;;;;;;;;;;;;;;;;2065004;28;20450;-79
2022/04/17 02:24:54;;;;;;;;;;;;;;;;;;2064873;28;20305;-79
2022/04/17 02:25:54;;;;;;;;;;;;;;;;;;2073133;28;19914;-78
2022/04/17 02:26:54;;;;;;;;;;;;;;;;;;2073850;28;19918;-80
2022/04/17 02:27:55;;;;;;;;;;;;;;;;;;2073773;28;19917;-79
2022/04/17 02:28:56;;;;;;;;;;;;;;;;;;2073525;28;19913;-78
2022/04/17 02:29:56;;;;;;;;;;;;;;;;;;2073289;28;19918;-79
2022/04/17 02:31:00;;;;;;;;;;;;;;;;;;2073373;28;20268;-78
2022/04/17 02:32:00;;;;;;;;;;;;;;;;;;2064595;28;19914;-79
2022/04/17 02:33:01;;;;;;;;;;;;;;;;;;2064780;28;19914;-79
2022/04/17 02:34:01;;;;;;;;;;;;;;;;;;2073115;28;19944;-78
2022/04/17 02:35:02;;;;;;;;;;;;;;;;;;2064978;28;19918;-81
2022/04/17 02:36:02;;;;;;;;;;;;;;;;;;2065361;28;20271;-80
2022/04/17 02:37:03;;;;;;;;;;;;;;;;;;2074257;28;20000;-80
2022/04/17 02:38:04;;;;;;;;;;;;;;;;;;2075547;28;19979;-79
2022/04/17 02:39:06;;;;;;;;;;;;;;;;;;2075483;28;19914;-81
2022/04/17 02:40:07;;;;;;;;;;;;;;;;;;2075069;28;19917;-78
2022/04/17 02:41:07;;;;;;;;;;;;;;;;;;2075310;28;19983;-80
2022/04/17 02:42:07;;;;;;;;;;;;;;;;;;2074993;28;19913;-82
2022/04/17 02:43:08;;;;;;;;;;;;;;;;;;2066719;28;19914;-80
2022/04/17 02:44:08;;;;;;;;;;;;;;;;;;2066372;28;20004;-82
2022/04/17 02:45:08;;;;;;;;;;;;;;;;;;2075476;28;19956;-79
2022/04/17 02:46:09;;;;;;;;;;;;;;;;;;2075170;28;19928;-79
2022/04/17 02:48:28;;;;;;;;;;;;;;;;;;2075323;28;19949;-80
2022/04/17 02:49:28;;;;;;;;;;;;;;;;;;2069838;28;19922;-81
2022/04/17 02:50:30;;;;;;;;;;;;;;;;;;2066954;28;20343;-79
2022/04/17 02:51:31;;;;;;;;;;;;;;;;;;2058338;28;19914;-81
2022/04/17 02:52:31;;;;;;;;;;;;;;;;;;2058245;28;19914;-79
2022/04/17 02:53:32;;;;;;;;;;;;;;;;;;2066299;28;20358;-80
2022/04/17 02:54:32;;;;;;;;;;;;;;;;;;2058023;28;19929;-81
2022/04/17 02:55:33;;;;;;;;;;;;;;;;;;2050233;29;19914;-81
2022/04/17 02:56:33;;;;;;;;;;;;;;;;;;2050525;29;19982;-81
2022/04/17 02:57:34;;;;;;;;;;;;;;;;;;2058176;28;20001;-80
2022/04/17 02:58:37;;;;;;;;;;;;;;;;;;2066729;28;19956;-82
2022/04/17 02:59:37;;;;;;;;;;;;;;;;;;2057910;28;20000;-81
2022/04/17 03:05:36;;;;;;;;;;;;;;;;;;2049996;29;20368;-81
2022/04/17 03:05:55;;;;;;;;;;;;;;;;;;2066581;28;19918;-80
2022/04/17 03:06:55;;;;;;;;;;;;;;;;;;2066460;28;19913;-80
2022/04/17 03:07:55;;;;;;;;;;;;;;;;;;2066544;28;19976;-81
2022/04/17 03:08:56;;;;;;;;;;;;;;;;;;2066547;28;20008;-81
2022/04/17 03:09:56;;;;;;;;;;;;;;;;;;2066421;28;20009;-81
2022/04/17 03:10:56;;;;;;;;;;;;;;;;;;2066496;28;19914;-81
2022/04/17 03:11:57;;;;;;;;;;;;;;;;;;2066488;28;19924;-82
2022/04/17 03:12:57;;;;;;;;;;;;;;;;;;2058100;28;20307;-82
2022/04/17 03:13:58;;;;;;;;;;;;;;;;;;2057940;28;19925;-82
2022/04/17 03:14:58;;;;;;;;;;;;;;;;;;2066566;28;19925;-82
2022/04/17 03:15:59;;;;;;;;;;;;;;;;;;2066546;28;20033;-82
2022/04/17 03:16:59;;;;;;;;;;;;;;;;;;2057966;28;20001;-82
2022/04/17 03:18:00;;;;;;;;;;;;;;;;;;2058084;28;20275;-82
2022/04/17 03:19:00;;;;;;;;;;;;;;;;;;2066502;28;19989;-82
2022/04/17 03:20:01;;;;;;;;;;;;;;;;;;2057786;28;19914;-82
2022/04/17 03:21:01;;;;;;;;;;;;;;;;;;2057690;28;20412;-82
2022/04/17 03:22:01;;;;;;;;;;;;;;;;;;2065917;28;19921;-82
2022/04/17 03:23:02;;;;;;;;;;;;;;;;;;2065874;28;19918;-82
2022/04/17 03:24:02;;;;;;;;;;;;;;;;;;2066187;28;19918;-82
2022/04/17 03:25:06;;;;;;;;;;;;;;;;;;2066115;28;19961;-82
2022/04/17 03:26:09;;;;;;;;;;;;;;;;;;2066331;28;19914;-83
2022/04/17 03:27:10;;;;;;;;;;;;;;;;;;2057945;28;20009;-85
2022/04/17 03:28:12;;;;;;;;;;;;;;;;;;2058011;28;19918;-83
2022/04/17 03:29:12;;;;;;;;;;;;;;;;;;2066464;28;19928;-83
2022/04/17 03:30:23;;;;;;;;;;;;;;;;;;2066437;28;20298;-84
2022/04/17 03:31:23;;;;;;;;;;;;;;;;;;2057725;28;20394;-83
2022/04/17 03:32:23;;;;;;;;;;;;;;;;;;2057909;28;19914;-83
2022/04/17 03:33:23;;;;;;;;;;;;;;;;;;2066106;28;19942;-83
2022/04/17 03:34:24;;;;;;;;;;;;;;;;;;2057933;28;20366;-83
2022/04/17 03:35:24;;;;;;;;;;;;;;;;;;2057770;28;19922;-82
2022/04/17 03:36:24;;;;;;;;;;;;;;;;;;2066401;28;19917;-83
2022/04/17 03:37:24;;;;;;;;;;;;;;;;;;2066416;28;20355;-84
2022/04/17 03:38:25;;;;;;;;;;;;;;;;;;2066431;28;19921;-84
2022/04/17 03:39:25;;;;;;;;;;;;;;;;;;2066178;28;19925;-83
2022/04/17 03:40:26;;;;;;;;;;;;;;;;;;2057781;28;20355;-84
2022/04/17 03:41:26;;;;;;;;;;;;;;;;;;2057714;28;20324;-83
2022/04/17 03:42:26;;;;;;;;;;;;;;;;;;2065847;28;20386;-84
2022/04/17 03:43:29;;;;;;;;;;;;;;;;;;2066351;28;20283;-83
2022/04/17 03:44:29;;;;;;;;;;;;;;;;;;2066503;28;19924;-85
2022/04/17 03:45:30;;;;;;;;;;;;;;;;;;2066276;28;19914;-83
2022/04/17 03:46:31;;;;;;;;;;;;;;;;;;2066575;28;19914;-83
2022/04/17 03:47:31;;;;;;;;;;;;;;;;;;2066256;28;19913;-82
2022/04/17 03:48:31;;;;;;;;;;;;;;;;;;2065379;28;20016;-83
2022/04/17 03:49:32;;;;;;;;;;;;;;;;;;2057444;28;19922;-83
2022/04/17 03:50:32;;;;;;;;;;;;;;;;;;2057897;28;19918;-82
2022/04/17 03:51:33;;;;;;;;;;;;;;;;;;2066125;28;19918;-83
2022/04/17 03:52:40;;;;;;;;;;;;;;;;;;2066335;28;19924;-83
2022/04/17 03:53:42;;;;;;;;;;;;;;;;;;2066132;28;19924;-83
2022/04/17 03:54:42;;;;;;;;;;;;;;;;;;2057792;28;19906;-83
2022/04/17 03:55:42;;;;;;;;;;;;;;;;;;2049598;29;20055;-83
2022/04/17 03:56:43;;;;;;;;;;;;;;;;;;2057604;28;19915;-82
2022/04/17 03:57:44;;;;;;;;;;;;;;;;;;2066202;28;19921;-82
2022/04/17 03:58:44;;;;;;;;;;;;;;;;;;2066319;28;19914;-82
2022/04/17 03:59:44;;;;;;;;;;;;;;;;;;2066122;28;20040;-83
2022/04/17 04:00:47;;;;;;;;;;;;;;;;;;2066086;28;19913;-82
2022/04/17 04:01:47;;;;;;;;;;;;;;;;;;2066144;28;19913;-82
2022/04/17 04:02:49;;;;;;;;;;;;;;;;;;2057621;28;19941;-83
2022/04/17 04:03:49;;;;;;;;;;;;;;;;;;2057450;28;19914;-82
2022/04/17 04:04:50;;;;;;;;;;;;;;;;;;2057664;28;20419;-82
2022/04/17 04:05:50;;;;;;;;;;;;;;;;;;2057600;28;19925;-83
2022/04/17 04:06:52;;;;;;;;;;;;;;;;;;2066283;28;19914;-83
2022/04/17 04:07:53;;;;;;;;;;;;;;;;;;2066225;28;19918;-82
2022/04/17 04:08:53;;;;;;;;;;;;;;;;;;2065824;28;20355;-82
2022/04/17 04:09:53;;;;;;;;;;;;;;;;;;2066128;28;19917;-82
2022/04/17 04:10:54;;;;;;;;;;;;;;;;;;2065861;28;19949;-82
2022/04/17 04:11:54;;;;;;;;;;;;;;;;;;2065826;28;19984;-83
2022/04/17 04:12:55;;;;;;;;;;;;;;;;;;2065965;28;20378;-83
2022/04/17 04:13:55;;;;;;;;;;;;;;;;;;2065730;28;19921;-83
2022/04/17 04:14:56;;;;;;;;;;;;;;;;;;2065777;28;19926;-83
2022/04/17 04:15:56;;;;;;;;;;;;;;;;;;2066108;28;19997;-83
2022/04/17 04:16:58;;;;;;;;;;;;;;;;;;2065918;28;20381;-82
2022/04/17 04:17:58;;;;;;;;;;;;;;;;;;2065870;28;19924;-83
2022/04/17 04:19:02;;;;;;;;;;;;;;;;;;2065983;28;20362;-83
2022/04/17 04:20:03;;;;;;;;;;;;;;;;;;2066582;28;19917;-83
2022/04/17 04:21:04;;;;;;;;;;;;;;;;;;2066068;28;19983;-83
2022/04/17 04:22:04;;;;;;;;;;;;;;;;;;2065983;28;20363;-83
2022/04/17 04:23:05;;;;;;;;;;;;;;;;;;2057423;28;19918;-83
2022/04/17 04:24:05;;;;;;;;;;;;;;;;;;2057402;28;19957;-84
2022/04/17 04:25:08;;;;;;;;;;;;;;;;;;2065461;28;20351;-83
2022/04/17 04:26:08;;;;;;;;;;;;;;;;;;2065518;28;20278;-83
2022/04/17 04:28:33;;;;;;;;;;;;;;;;;;2066019;28;20299;-83
2022/04/17 04:29:34;;;;;;;;;;;;;;;;;;2065842;28;20023;-83
2022/04/17 04:30:34;;;;;;;;;;;;;;;;;;2065898;28;19973;-82
2022/04/17 04:31:35;;;;;;;;;;;;;;;;;;2057326;28;19921;-82
2022/04/17 04:32:36;;;;;;;;;;;;;;;;;;2057431;28;19920;-83
2022/04/17 04:33:37;;;;;;;;;;;;;;;;;;2065604;28;19913;-83
2022/04/17 04:34:37;;;;;;;;;;;;;;;;;;2065902;28;19913;-83
2022/04/17 04:35:38;;;;;;;;;;;;;;;;;;2065781;28;19914;-84
2022/04/17 04:36:38;;;;;;;;;;;;;;;;;;2065909;28;20379;-83
2022/04/17 04:37:38;;;;;;;;;;;;;;;;;;2065893;28;19914;-84
2022/04/17 04:38:39;;;;;;;;;;;;;;;;;;2065915;28;20387;-84
2022/04/17 04:39:40;;;;;;;;;;;;;;;;;;2065904;28;20325;-83
2022/04/17 04:40:40;;;;;;;;;;;;;;;;;;2065857;28;20285;-84
2022/04/17 04:41:40;;;;;;;;;;;;;;;;;;2065864;28;19945;-84
2022/04/17 04:42:41;;;;;;;;;;;;;;;;;;2065803;28;19961;-84
2022/04/17 04:43:41;;;;;;;;;;;;;;;;;;2065436;28;20013;-82
2022/04/17 04:44:41;;;;;;;;;;;;;;;;;;2065700;28;19913;-83
2022/04/17 04:47:00;;;;;;;;;;;;;;;;;;2066075;28;19981;-83
2022/04/17 04:48:01;;;;;;;;;;;;;;;;;;2058444;28;19918;-82
2022/04/17 04:50:20;;;;;;;;;;;;;;;;;;2065604;28;19996;-84
2022/04/17 04:51:21;;;;;;;;;;;;;;;;;;2066394;28;19914;-85
2022/04/17 04:52:21;;;;;;;;;;;;;;;;;;2057385;28;19941;-81
2022/04/17 04:53:22;;;;;;;;;;;;;;;;;;2057492;28;19980;-86
2022/04/17 04:54:22;;;;;;;;;;;;;;;;;;2057288;28;20327;-84
2022/04/17 04:55:22;;;;;;;;;;;;;;;;;;2058018;28;19928;-83
2022/04/17 04:56:23;;;;;;;;;;;;;;;;;;2065999;28;19924;-84
2022/04/17 04:57:23;;;;;;;;;;;;;;;;;;2067719;28;19914;-86
2022/04/17 04:58:24;;;;;;;;;;;;;;;;;;2058202;28;19914;-84
2022/04/17 04:59:24;;;;;;;;;;;;;;;;;;2057558;28;20307;-82
2022/04/17 05:00:24;;;;;;;;;;;;;;;;;;2065730;28;19953;-82
2022/04/17 05:01:25;;;;;;;;;;;;;;;;;;2066319;28;19918;-84
2022/04/17 05:02:25;;;;;;;;;;;;;;;;;;2066018;28;19914;-83
2022/04/17 05:03:26;;;;;;;;;;;;;;;;;;2057209;28;20370;-80
2022/04/17 05:04:27;;;;;;;;;;;;;;;;;;2049120;28;20352;-83
2022/04/17 05:05:28;;;;;;;;;;;;;;;;;;2057008;28;19918;-81
2022/04/17 05:06:28;;;;;;;;;;;;;;;;;;2065668;28;20421;-83
2022/04/17 05:07:28;;;;;;;;;;;;;;;;;;2066343;28;19981;-83
2022/04/17 05:08:29;;;;;;;;;;;;;;;;;;2058174;28;20378;-85
2022/04/17 05:09:29;;;;;;;;;;;;;;;;;;2057538;28;20267;-83
2022/04/17 05:10:29;;;;;;;;;;;;;;;;;;2065677;28;19913;-84
2022/04/17 05:11:30;;;;;;;;;;;;;;;;;;2065538;28;20359;-83
2022/04/17 05:12:32;;;;;;;;;;;;;;;;;;2065616;28;19913;-83
2022/04/17 05:13:32;;;;;;;;;;;;;;;;;;2056885;28;19924;-82
2022/04/17 05:14:35;;;;;;;;;;;;;;;;;;2057228;28;19921;-82
2022/04/17 05:15:35;;;;;;;;;;;;;;;;;;2065635;28;19914;-82
2022/04/17 05:16:36;;;;;;;;;;;;;;;;;;2065573;28;19924;-83
2022/04/17 05:17:36;;;;;;;;;;;;;;;;;;2057115;28;19958;-83
2022/04/17 05:18:39;;;;;;;;;;;;;;;;;;2057195;28;20446;-80
2022/04/17 05:19:39;;;;;;;;;;;;;;;;;;2056730;28;19914;-83
2022/04/17 05:20:48;;;;;;;;;;;;;;;;;;2056527;28;19914;-83
2022/04/17 05:21:51;;;;;;;;;;;;;;;;;;2064664;28;20335;-83
2022/04/17 05:22:56;;;;;;;;;;;;;;;;;;2056910;28;20429;-83
2022/04/17 05:23:56;;;;;;;;;;;;;;;;;;2057045;28;20378;-82
2022/04/17 05:25:04;;;;;;;;;;;;;;;;;;2056461;28;19914;-84
2022/04/17 05:26:05;;;;;;;;;;;;;;;;;;2058224;28;19945;-82
2022/04/17 05:27:05;;;;;;;;;;;;;;;;;;2056344;28;19921;-79
2022/04/17 05:28:13;;;;;;;;;;;;;;;;;;2056497;28;20353;-83
2022/04/17 05:29:22;;;;;;;;;;;;;;;;;;2056400;28;19918;-83
2022/04/17 05:30:22;;;;;;;;;;;;;;;;;;2049227;28;19985;-82
2022/04/17 05:31:23;;;;;;;;;;;;;;;;;;2056384;28;20057;-81
2022/04/17 05:32:24;;;;;;;;;;;;;;;;;;2064976;28;20271;-83
2022/04/17 05:33:24;;;;;;;;;;;;;;;;;;2064713;28;19914;-83
2022/04/17 05:34:25;;;;;;;;;;;;;;;;;;2056168;28;19921;-81
2022/04/17 05:35:25;;;;;;;;;;;;;;;;;;2056414;28;19944;-83
2022/04/17 05:36:26;;;;;;;;;;;;;;;;;;2064785;28;19947;-81
2022/04/17 05:37:27;;;;;;;;;;;;;;;;;;2064820;28;19918;-80
2022/04/17 05:38:27;;;;;;;;;;;;;;;;;;2064904;28;19929;-84
2022/04/17 05:39:28;;;;;;;;;;;;;;;;;;2064818;28;20278;-80
2022/04/17 05:40:31;;;;;;;;;;;;;;;;;;2064756;28;19925;-80
2022/04/17 05:41:32;;;;;;;;;;;;;;;;;;2064752;28;19914;-80
2022/04/17 05:42:32;;;;;;;;;;;;;;;;;;2064828;28;20310;-83
2022/04/17 05:43:33;;;;;;;;;;;;;;;;;;2056219;28;20128;-80
2022/04/17 05:44:37;;;;;;;;;;;;;;;;;;2056098;28;20009;-80
2022/04/17 05:45:41;;;;;;;;;;;;;;;;;;2065000;28;20271;-80
2022/04/17 05:46:42;;;;;;;;;;;;;;;;;;2064469;28;19924;-81
2022/04/17 05:47:43;;;;;;;;;;;;;;;;;;2064718;28;20366;-81
2022/04/17 05:48:43;;;;;;;;;;;;;;;;;;2064532;28;19913;-83
2022/04/17 05:49:44;;;;;;;;;;;;;;;;;;2070912;28;19929;-84
2022/04/17 05:50:44;;;;;;;;;;;;;;;;;;2072189;28;19914;-82
2022/04/17 05:51:47;;;;;;;;;;;;;;;;;;2064552;28;19914;-84
2022/04/17 05:52:47;;;;;;;;;;;;;;;;;;2064442;28;20362;-84
2022/04/17 05:53:48;;;;;;;;;;;;;;;;;;2072323;28;19914;-83
2022/04/17 05:54:48;;;;;;;;;;;;;;;;;;2072849;28;20008;-83
2022/04/17 05:55:48;;;;;;;;;;;;;;;;;;2072842;28;20514;-81
2022/04/17 05:56:48;;;;;;;;;;;;;;;;;;2073044;28;19913;-80
2022/04/17 05:57:49;;;;;;;;;;;;;;;;;;2073185;28;19947;-84
2022/04/17 05:58:49;;;;;;;;;;;;;;;;;;2073311;28;19957;-80
2022/04/17 05:59:49;;;;;;;;;;;;;;;;;;2073402;28;20012;-84
2022/04/17 06:00:52;;;;;;;;;;;;;;;;;;2064782;28;19996;-80
2022/04/17 06:01:52;;;;;;;;;;;;;;;;;;2065163;28;19917;-84
2022/04/17 06:02:54;;;;;;;;;;;;;;;;;;2073369;28;20354;-84
2022/04/17 06:03:57;;;;;;;;;;;;;;;;;;2073272;28;19913;-83
2022/04/17 06:04:57;;;;;;;;;;;;;;;;;;2073387;28;19972;-82
2022/04/17 06:05:58;;;;;;;;;;;;;;;;;;2064677;28;19913;-82
2022/04/17 06:07:00;;;;;;;;;;;;;;;;;;2072755;28;20008;-84
2022/04/17 06:08:01;;;;;;;;;;;;;;;;;;2081006;28;19913;-83
2022/04/17 06:09:03;;;;;;;;;;;;;;;;;;2073143;28;19913;-81
2022/04/17 06:10:04;;;;;;;;;;;;;;;;;;2072993;28;20200;-83
2022/04/17 06:11:05;;;;;;;;;;;;;;;;;;2064782;28;19924;-78
2022/04/17 06:12:25;;;;;;;;;;;;;;;;;;2065665;28;19913;-80
2022/04/17 06:13:25;;;;;;;;;;;;;;;;;;2075036;28;19928;-83
2022/04/17 06:14:26;;;;;;;;;;;;;;;;;;2075420;28;19951;-83
2022/04/17 06:15:26;;;;;;;;;;;;;;;;;;2075437;28;19980;-79
2022/04/17 06:16:26;;;;;;;;;;;;;;;;;;2067321;28;20294;-80
2022/04/17 06:17:26;;;;;;;;;;;;;;;;;;2067089;28;19921;-82
2022/04/17 06:18:27;;;;;;;;;;;;;;;;;;2075137;28;19920;-81
2022/04/17 06:19:36;;;;;;;;;;;;;;;;;;2066627;28;19925;-83
2022/04/17 06:20:36;;;;;;;;;;;;;;;;;;2067610;28;19953;-83
2022/04/17 06:21:36;;;;;;;;;;;;;;;;;;2074979;28;20502;-82
2022/04/17 06:22:39;;;;;;;;;;;;;;;;;;2074595;28;20421;-83
2022/04/17 06:23:40;;;;;;;;;;;;;;;;;;2074871;28;19914;-81
2022/04/17 06:24:40;;;;;;;;;;;;;;;;;;2074953;28;20412;-79
2022/04/17 06:25:40;;;;;;;;;;;;;;;;;;2075080;28;20270;-80
2022/04/17 06:26:43;;;;;;;;;;;;;;;;;;2075640;28;20012;-80
2022/04/17 06:27:45;;;;;;;;;;;;;;;;;;2075131;28;20354;-80
2022/04/17 06:28:45;;;;;;;;;;;;;;;;;;2066099;28;20319;-83
2022/04/17 06:29:52;;;;;;;;;;;;;;;;;;2066229;28;19918;-83
2022/04/17 06:30:53;;;;;;;;;;;;;;;;;;2075469;28;19960;-81
2022/04/17 06:31:53;;;;;;;;;;;;;;;;;;2074921;28;19913;-80
2022/04/17 06:32:54;;;;;;;;;;;;;;;;;;2074921;28;20355;-83
2022/04/17 06:33:56;;;;;;;;;;;;;;;;;;2075078;28;19914;-79
2022/04/17 06:34:58;;;;;;;;;;;;;;;;;;2075022;28;20397;-82
2022/04/17 06:35:59;;;;;;;;;;;;;;;;;;2074860;28;20377;-82
2022/04/17 06:36:59;;;;;;;;;;;;;;;;;;2066177;28;19914;-82
2022/04/17 06:38:00;;;;;;;;;;;;;;;;;;2066638;28;19913;-80
2022/04/17 06:39:00;;;;;;;;;;;;;;;;;;2075117;28;19924;-80
2022/04/17 06:40:01;;;;;;;;;;;;;;;;;;2066237;28;19964;-80
2022/04/17 06:41:01;;;;;;;;;;;;;;;;;;2067571;28;19918;-83
2022/04/17 06:42:01;;;;;;;;;;;;;;;;;;2074674;28;19917;-81
2022/04/17 06:43:05;;;;;;;;;;;;;;;;;;2074240;28;19913;-81
2022/04/17 06:44:05;;;;;;;;;;;;;;;;;;2075924;28;19913;-81
2022/04/17 06:45:05;;;;;;;;;;;;;;;;;;2066113;28;20436;-78
2022/04/17 06:46:06;;;;;;;;;;;;;;;;;;2066288;28;19914;-79
2022/04/17 06:47:06;;;;;;;;;;;;;;;;;;2065931;28;20122;-82
2022/04/17 06:48:13;;;;;;;;;;;;;;;;;;2066249;28;19956;-80
2022/04/17 06:49:14;;;;;;;;;;;;;;;;;;2071887;28;19926;-82
2022/04/17 06:50:15;;;;;;;;;;;;;;;;;;2057923;28;19924;-80
2022/04/17 06:51:19;;;;;;;;;;;;;;;;;;2058362;28;19914;-78
2022/04/17 06:52:19;;;;;;;;;;;;;;;;;;2066849;28;19921;-82
2022/04/17 06:53:19;;;;;;;;;;;;;;;;;;2067109;28;19914;-84
2022/04/17 06:54:20;;;;;;;;;;;;;;;;;;2066610;28;19992;-81
2022/04/17 06:55:20;;;;;;;;;;;;;;;;;;2067311;28;19941;-80
2022/04/17 06:56:20;;;;;;;;;;;;;;;;;;2066371;28;19914;-83
2022/04/17 06:57:26;;;;;;;;;;;;;;;;;;2066383;28;19953;-80
2022/04/17 06:58:26;;;;;;;;;;;;;;;;;;2066625;28;19913;-80
2022/04/17 06:59:27;;;;;;;;;;;;;;;;;;2067422;28;19920;-84
2022/04/17 07:00:27;;;;;;;;;;;;;;;;;;2067559;28;19913;-83
2022/04/17 07:01:29;;;;;;;;;;;;;;;;;;2066710;28;20288;-83
2022/04/17 07:02:30;;;;;;;;;;;;;;;;;;2067368;28;20359;-78
2022/04/17 07:03:30;;;;;;;;;;;;;;;;;;2066926;28;19914;-83
2022/04/17 07:04:30;;;;;;;;;;;;;;;;;;2067184;28;20000;-82
2022/04/17 07:05:33;;;;;;;;;;;;;;;;;;2067338;28;20008;-82
2022/04/17 07:06:36;;;;;;;;;;;;;;;;;;2067344;28;19914;-83
2022/04/17 07:07:39;;;;;;;;;;;;;;;;;;2066891;28;19948;-82
2022/04/17 07:08:39;;;;;;;;;;;;;;;;;;2058436;28;19925;-82
2022/04/17 07:09:40;;;;;;;;;;;;;;;;;;2058217;28;19925;-83
2022/04/17 07:10:40;;;;;;;;;;;;;;;;;;2067374;28;19993;-83